Time;durP1;ratioP1;P1;durP2;ratioP2;P2;SDS_P1;SDS_P2;PMS_P1;PMS_P2;Temp;Humidity;BMP_temperature;BMP_pressure;BME280_temperature;BME280_humidity;BME280_pressure;Samples;Min_cycle;Max_cycle;Signal;HPM_P1;HPM_P2
2024/03/24 00:00:38;;;;;;;1.80;1.20;;;4.40;99.90;;;;;;5057250;28;20670;-75
2024/03/24 00:03:04;;;;;;;1.50;1.38;;;4.30;99.90;;;;;;5062729;27;20190;-75
2024/03/24 00:05:31;;;;;;;0.87;0.80;;;4.40;99.90;;;;;;5054584;27;20256;-75
2024/03/24 00:07:58;;;;;;;1.75;1.27;;;4.40;99.90;;;;;;5050716;28;20681;-75
2024/03/24 00:10:24;;;;;;;1.70;1.58;;;4.40;99.90;;;;;;5059898;28;20201;-75
2024/03/24 00:12:50;;;;;;;0.95;0.95;;;4.30;99.90;;;;;;5058019;28;20193;-75
2024/03/24 00:15:17;;;;;;;0.90;0.90;;;4.40;99.90;;;;;;5106864;27;20218;-75
2024/03/24 00:17:43;;;;;;;1.40;1.30;;;4.40;99.90;;;;;;5075014;27;20204;-75
2024/03/24 00:20:10;;;;;;;2.40;1.13;;;4.40;99.90;;;;;;5054086;27;20743;-75
2024/03/24 00:22:36;;;;;;;3.72;1.10;;;4.40;99.90;;;;;;5052977;28;20209;-75
2024/03/24 00:25:05;;;;;;;1.73;1.20;;;4.30;99.90;;;;;;5049655;28;20186;-75
2024/03/24 00:27:31;;;;;;;1.58;1.02;;;4.30;99.90;;;;;;5050452;28;21003;-75
2024/03/24 00:29:57;;;;;;;1.40;0.90;;;4.20;99.90;;;;;;5072777;27;20210;-75
2024/03/24 00:32:23;;;;;;;1.77;1.27;;;4.20;99.90;;;;;;5048360;27;20206;-75
2024/03/24 00:34:50;;;;;;;1.60;0.90;;;4.10;99.90;;;;;;5104327;27;20681;-75
2024/03/24 00:37:16;;;;;;;1.25;1.00;;;4.10;99.90;;;;;;5080719;27;20209;-74
2024/03/24 00:39:42;;;;;;;2.17;1.00;;;4.00;99.90;;;;;;5055592;28;20255;-75
2024/03/24 00:42:09;;;;;;;0.95;0.90;;;4.10;99.90;;;;;;5053525;27;20513;-75
2024/03/24 00:44:36;;;;;;;1.65;1.20;;;3.90;99.90;;;;;;5047787;28;20196;-75
2024/03/24 00:47:02;;;;;;;1.80;1.50;;;3.80;99.90;;;;;;5048239;28;20208;-75
2024/03/24 00:49:29;;;;;;;1.63;1.10;;;3.80;99.90;;;;;;5060299;28;20197;-75
2024/03/24 00:51:55;;;;;;;1.02;0.90;;;3.70;99.90;;;;;;5055813;28;20614;-75
2024/03/24 00:54:21;;;;;;;0.93;0.80;;;3.90;99.90;;;;;;5052058;27;20584;-74
2024/03/24 00:56:47;;;;;;;1.50;1.40;;;3.80;99.90;;;;;;5051216;28;20191;-74
2024/03/24 00:59:15;;;;;;;1.30;1.20;;;3.80;99.90;;;;;;5089368;27;20219;-75
2024/03/24 01:01:41;;;;;;;1.60;1.23;;;3.80;99.90;;;;;;5080592;27;21184;-75
2024/03/24 01:04:08;;;;;;;5.07;1.00;;;3.70;99.90;;;;;;5056458;27;20221;-74
2024/03/24 01:06:34;;;;;;;1.70;1.10;;;3.60;99.90;;;;;;5052481;28;20197;-74
2024/03/24 01:09:03;;;;;;;1.63;1.00;;;3.60;99.90;;;;;;5049937;27;20193;-74
2024/03/24 01:11:29;;;;;;;1.48;0.98;;;3.70;99.90;;;;;;5040510;28;20284;-74
2024/03/24 01:13:56;;;;;;;1.30;0.95;;;3.60;99.90;;;;;;5055932;27;20296;-74
2024/03/24 01:16:23;;;;;;;1.42;1.10;;;3.60;99.90;;;;;;5058433;28;20680;-74
2024/03/24 01:18:50;;;;;;;0.93;0.88;;;3.60;99.90;;;;;;5051163;27;20281;-74
2024/03/24 01:21:16;;;;;;;1.23;0.85;;;3.60;99.90;;;;;;5048407;28;20200;-75
2024/03/24 01:23:42;;;;;;;2.40;1.20;;;3.70;99.90;;;;;;5051930;27;20315;-75
2024/03/24 01:26:08;;;;;;;1.55;1.42;;;3.70;99.90;;;;;;5062147;27;20628;-75
2024/03/24 01:28:35;;;;;;;1.43;1.20;;;3.70;99.90;;;;;;5056309;28;20203;-75
2024/03/24 01:31:01;;;;;;;0.90;0.90;;;3.80;99.90;;;;;;5051535;28;20196;-75
2024/03/24 01:33:29;;;;;;;1.10;1.10;;;3.60;99.90;;;;;;5072860;27;20202;-75
2024/03/24 01:35:55;;;;;;;0.93;0.93;;;3.70;99.90;;;;;;5061292;27;20214;-74
2024/03/24 01:38:21;;;;;;;0.90;0.90;;;3.60;99.90;;;;;;5049835;28;20193;-74
2024/03/24 01:40:47;;;;;;;1.00;1.00;;;3.60;99.90;;;;;;5053490;28;20622;-74
2024/03/24 01:43:14;;;;;;;2.30;2.00;;;3.50;99.90;;;;;;5065193;27;20201;-75
2024/03/24 01:45:40;;;;;;;1.45;1.35;;;3.60;99.90;;;;;;5096669;27;20637;-75
2024/03/24 01:48:08;;;;;;;1.95;1.08;;;3.60;99.90;;;;;;5061560;27;20280;-75
2024/03/24 01:50:35;;;;;;;1.13;1.00;;;3.60;99.90;;;;;;5051625;28;20230;-74
2024/03/24 01:53:03;;;;;;;2.35;1.95;;;3.60;99.90;;;;;;5053725;27;20184;-74
2024/03/24 01:55:29;;;;;;;1.23;1.13;;;3.60;99.90;;;;;;5051956;28;20229;-74
2024/03/24 01:57:56;;;;;;;0.83;0.83;;;3.60;99.90;;;;;;5055273;27;20299;-75
2024/03/24 02:00:23;;;;;;;2.13;1.10;;;3.60;99.90;;;;;;5099674;27;20666;-75
2024/03/24 02:02:49;;;;;;;1.10;1.00;;;3.70;99.90;;;;;;5053509;27;20188;-75
2024/03/24 02:05:23;;;;;;;1.13;1.13;;;3.70;99.90;;;;;;5055189;27;20202;-75
2024/03/24 02:07:51;;;;;;;1.40;1.30;;;3.60;99.90;;;;;;5063687;27;20204;-75
2024/03/24 02:10:18;;;;;;;1.17;1.08;;;3.60;99.90;;;;;;5088567;27;20233;-75
2024/03/24 02:12:46;;;;;;;1.92;1.42;;;3.60;99.90;;;;;;5048194;28;20267;-75
2024/03/24 02:15:13;;;;;;;1.83;1.73;;;3.60;99.90;;;;;;5046032;28;20213;-75
2024/03/24 02:17:40;;;;;;;1.30;1.20;;;3.60;99.90;;;;;;5045495;28;20192;-75
2024/03/24 02:20:08;;;;;;;1.50;1.08;;;3.50;99.90;;;;;;5061447;28;20625;-75
2024/03/24 02:22:37;;;;;;;1.30;1.20;;;3.40;99.90;;;;;;5060020;27;20204;-75
2024/03/24 02:25:05;;;;;;;1.20;1.10;;;3.50;99.90;;;;;;5055794;28;20195;-75
2024/03/24 02:27:32;;;;;;;1.30;1.05;;;3.30;99.90;;;;;;5045210;28;20662;-75
2024/03/24 02:29:59;;;;;;;2.05;1.13;;;3.30;99.90;;;;;;5047455;28;20205;-75
2024/03/24 02:32:26;;;;;;;1.20;1.10;;;3.20;99.90;;;;;;5046126;28;20301;-75
2024/03/24 02:34:53;;;;;;;1.60;1.50;;;3.20;99.90;;;;;;5056657;28;20339;-75
2024/03/24 02:37:21;;;;;;;1.60;1.23;;;3.20;99.90;;;;;;5047471;28;20233;-75
2024/03/24 02:39:49;;;;;;;1.23;1.10;;;3.20;99.90;;;;;;5046265;28;20570;-75
2024/03/24 02:42:17;;;;;;;1.77;1.40;;;3.30;99.90;;;;;;5045878;28;20292;-75
2024/03/24 02:44:43;;;;;;;1.30;1.20;;;3.20;99.90;;;;;;5054958;28;20204;-75
2024/03/24 02:47:11;;;;;;;4.05;1.05;;;3.30;99.90;;;;;;5047724;28;20204;-75
2024/03/24 02:49:37;;;;;;;0.70;0.70;;;3.40;99.90;;;;;;5047129;28;20521;-75
2024/03/24 02:52:05;;;;;;;1.30;1.07;;;3.30;99.90;;;;;;5049646;28;20199;-75
2024/03/24 02:54:30;;;;;;;1.30;1.08;;;3.40;99.90;;;;;;5045027;28;20657;-75
2024/03/24 02:56:59;;;;;;;1.07;0.97;;;3.40;99.90;;;;;;5048928;28;20207;-75
2024/03/24 02:59:24;;;;;;;1.20;1.10;;;3.60;99.90;;;;;;5061016;28;20200;-75
2024/03/24 03:01:52;;;;;;;2.55;1.10;;;3.50;99.90;;;;;;5056450;28;20200;-75
2024/03/24 03:04:19;;;;;;;1.73;0.90;;;3.50;99.90;;;;;;5051572;28;20662;-75
2024/03/24 03:06:46;;;;;;;0.88;0.88;;;3.50;99.90;;;;;;5045176;28;20207;-75
2024/03/24 03:09:17;;;;;;;1.20;1.20;;;3.40;99.90;;;;;;5044628;28;20205;-75
2024/03/24 03:11:45;;;;;;;1.08;1.08;;;3.30;99.90;;;;;;5059127;28;20205;-75
2024/03/24 03:14:13;;;;;;;0.90;0.60;;;3.30;99.90;;;;;;5050928;28;20220;-75
2024/03/24 03:16:41;;;;;;;1.38;0.80;;;3.20;99.90;;;;;;5050650;28;20258;-75
2024/03/24 03:19:08;;;;;;;1.00;0.90;;;3.20;99.90;;;;;;5048373;27;20605;-75
2024/03/24 03:21:36;;;;;;;0.80;0.80;;;3.10;99.90;;;;;;5055709;28;20246;-75
2024/03/24 03:24:03;;;;;;;1.40;0.88;;;3.10;99.90;;;;;;5044910;28;20198;-75
2024/03/24 03:26:31;;;;;;;1.40;1.30;;;3.20;99.90;;;;;;5048419;28;20450;-75
2024/03/24 03:28:58;;;;;;;1.13;0.95;;;3.20;99.90;;;;;;5051376;28;20258;-75
2024/03/24 03:31:27;;;;;;;1.30;1.20;;;3.10;99.90;;;;;;5050437;28;20207;-75
2024/03/24 03:33:55;;;;;;;1.85;0.95;;;3.20;99.90;;;;;;5040627;28;20196;-75
2024/03/24 03:36:23;;;;;;;1.85;0.98;;;3.20;99.90;;;;;;5055309;28;20252;-75
2024/03/24 03:38:50;;;;;;;0.90;0.90;;;3.30;99.90;;;;;;5050524;28;20198;-75
2024/03/24 03:41:17;;;;;;;0.88;0.88;;;3.30;99.90;;;;;;5047738;28;20205;-75
2024/03/24 03:43:43;;;;;;;0.75;0.75;;;3.40;99.90;;;;;;5052409;28;20245;-75
2024/03/24 03:46:10;;;;;;;1.67;1.37;;;3.40;99.90;;;;;;5047465;27;20202;-75
2024/03/24 03:48:42;;;;;;;1.63;1.10;;;3.50;99.90;;;;;;5044148;28;20242;-75
2024/03/24 03:51:17;;;;;;;1.25;1.17;;;3.40;99.90;;;;;;5049781;28;20709;-75
2024/03/24 03:53:43;;;;;;;1.23;1.10;;;3.40;99.90;;;;;;5046433;28;20672;-75
2024/03/24 03:56:10;;;;;;;1.13;1.13;;;3.40;99.90;;;;;;5045079;28;20253;-75
2024/03/24 03:58:36;;;;;;;1.50;1.30;;;3.30;99.90;;;;;;5046604;28;20208;-75
2024/03/24 04:01:03;;;;;;;1.90;1.00;;;3.30;99.90;;;;;;5044993;28;20194;-75
2024/03/24 04:03:28;;;;;;;0.85;0.85;;;3.30;99.90;;;;;;5048292;27;20251;-75
2024/03/24 04:05:58;;;;;;;0.63;0.63;;;3.30;99.90;;;;;;5062118;27;20202;-75
2024/03/24 04:08:24;;;;;;;1.60;1.10;;;3.30;99.90;;;;;;5059515;27;20189;-74
2024/03/24 04:10:51;;;;;;;2.57;0.90;;;3.30;99.90;;;;;;5046133;28;20579;-74
2024/03/24 04:13:17;;;;;;;0.90;0.82;;;3.30;99.90;;;;;;5047174;28;20613;-74
2024/03/24 04:15:44;;;;;;;1.20;1.10;;;3.20;99.90;;;;;;5043036;27;20679;-74
2024/03/24 04:18:10;;;;;;;0.80;0.80;;;3.20;99.90;;;;;;5048026;28;20200;-75
2024/03/24 04:20:37;;;;;;;1.30;0.80;;;3.20;99.90;;;;;;5085360;27;20630;-74
2024/03/24 04:23:05;;;;;;;1.17;1.08;;;3.20;99.90;;;;;;5052380;28;20202;-74
2024/03/24 04:25:32;;;;;;;0.60;0.60;;;3.20;99.90;;;;;;5039604;28;20196;-74
2024/03/24 04:27:58;;;;;;;0.90;0.90;;;3.20;99.90;;;;;;5043582;28;20292;-74
2024/03/24 04:30:25;;;;;;;0.85;0.85;;;3.20;99.90;;;;;;5047876;28;20208;-74
2024/03/24 04:32:51;;;;;;;0.80;0.80;;;3.30;99.90;;;;;;5054667;28;20224;-74
2024/03/24 04:35:17;;;;;;;1.30;0.93;;;3.30;99.90;;;;;;5045657;28;20296;-74
2024/03/24 04:37:43;;;;;;;1.27;1.27;;;3.20;99.90;;;;;;5047913;28;21206;-75
2024/03/24 04:40:13;;;;;;;1.13;0.87;;;3.20;99.90;;;;;;5055303;28;20224;-74
2024/03/24 04:42:40;;;;;;;1.00;0.90;;;3.20;99.90;;;;;;5031992;28;20631;-74
2024/03/24 04:45:08;;;;;;;0.77;0.75;;;3.20;99.90;;;;;;5062263;28;20213;-74
2024/03/24 04:47:34;;;;;;;1.02;0.80;;;3.10;99.90;;;;;;5048956;28;20205;-74
2024/03/24 04:50:00;;;;;;;0.88;0.85;;;3.20;99.90;;;;;;5048776;28;20201;-75
2024/03/24 04:52:27;;;;;;;0.70;0.70;;;3.20;99.90;;;;;;5049070;28;20655;-74
2024/03/24 04:54:53;;;;;;;3.15;2.83;;;3.20;99.90;;;;;;5056539;27;20213;-74
2024/03/24 04:57:21;;;;;;;3.63;1.47;;;3.30;99.90;;;;;;5048421;28;20673;-74
2024/03/24 04:59:48;;;;;;;2.05;1.45;;;3.20;99.90;;;;;;5061141;28;20728;-74
2024/03/24 05:02:15;;;;;;;1.05;0.90;;;3.30;99.90;;;;;;5049350;27;20198;-74
2024/03/24 05:04:41;;;;;;;1.67;1.00;;;3.20;99.90;;;;;;5049412;28;20652;-74
2024/03/24 05:07:08;;;;;;;1.47;1.03;;;3.20;99.90;;;;;;5046569;28;20241;-74
2024/03/24 05:09:34;;;;;;;1.27;1.10;;;3.30;99.90;;;;;;5063097;28;20201;-74
2024/03/24 05:12:00;;;;;;;2.10;0.80;;;3.40;99.90;;;;;;5056514;28;20193;-74
2024/03/24 05:14:28;;;;;;;0.95;0.75;;;3.30;99.90;;;;;;5049473;28;20228;-73
2024/03/24 05:16:54;;;;;;;1.70;1.20;;;3.30;99.90;;;;;;5051049;28;20313;-74
2024/03/24 05:19:20;;;;;;;0.90;0.90;;;3.30;99.90;;;;;;5047783;27;20195;-73
2024/03/24 05:21:47;;;;;;;2.50;1.33;;;3.10;99.90;;;;;;5054108;28;20190;-74
2024/03/24 05:24:13;;;;;;;0.88;0.88;;;3.00;99.90;;;;;;5057099;28;20201;-73
2024/03/24 05:26:41;;;;;;;1.10;0.77;;;3.00;99.90;;;;;;5046770;28;20619;-74
2024/03/24 05:29:06;;;;;;;0.90;0.90;;;3.00;99.90;;;;;;5048234;28;20614;-75
2024/03/24 05:31:34;;;;;;;1.10;1.00;;;3.00;99.90;;;;;;5046281;28;20197;-74
2024/03/24 05:34:00;;;;;;;0.75;0.73;;;3.00;99.90;;;;;;5041304;28;20955;-75
2024/03/24 05:36:28;;;;;;;0.73;0.73;;;3.00;99.90;;;;;;5042854;28;20234;-74
2024/03/24 05:38:53;;;;;;;3.25;1.20;;;3.20;99.90;;;;;;5043155;28;20629;-75
2024/03/24 05:41:20;;;;;;;0.80;0.80;;;3.00;99.90;;;;;;5050190;28;20198;-75
2024/03/24 05:43:46;;;;;;;1.30;1.20;;;3.00;99.90;;;;;;5051352;27;20289;-74
2024/03/24 05:46:13;;;;;;;0.83;0.83;;;3.00;99.90;;;;;;5046565;28;20283;-74
2024/03/24 05:48:40;;;;;;;1.60;1.10;;;3.00;99.90;;;;;;5047310;28;20208;-74
2024/03/24 05:51:07;;;;;;;1.45;1.13;;;2.90;99.90;;;;;;5051958;27;20200;-74
2024/03/24 05:53:33;;;;;;;0.80;0.80;;;2.90;99.90;;;;;;5054292;28;20964;-74
2024/03/24 05:56:00;;;;;;;2.20;0.88;;;2.90;99.90;;;;;;5047894;27;20211;-75
2024/03/24 05:58:26;;;;;;;2.22;1.10;;;2.90;99.90;;;;;;5046401;28;20202;-74
2024/03/24 06:00:53;;;;;;;1.45;1.20;;;2.90;99.90;;;;;;5046424;28;20200;-74
2024/03/24 06:03:19;;;;;;;1.60;0.95;;;2.90;99.90;;;;;;5060384;28;20188;-74
2024/03/24 06:05:47;;;;;;;2.20;1.30;;;2.90;99.90;;;;;;5086858;27;20265;-74
2024/03/24 06:08:13;;;;;;;1.58;1.02;;;3.00;99.90;;;;;;5050636;28;20184;-74
2024/03/24 06:10:43;;;;;;;3.60;1.10;;;3.00;99.90;;;;;;5061545;27;20657;-74
2024/03/24 06:13:09;;;;;;;1.30;0.82;;;3.10;99.90;;;;;;5036578;28;20632;-74
2024/03/24 06:15:36;;;;;;;1.00;0.90;;;3.10;99.90;;;;;;5046529;28;20224;-74
2024/03/24 06:18:04;;;;;;;1.60;1.00;;;3.10;99.90;;;;;;5040881;28;20201;-74
2024/03/24 06:20:33;;;;;;;0.80;0.80;;;3.10;99.90;;;;;;5040833;28;20681;-74
2024/03/24 06:23:01;;;;;;;0.70;0.70;;;3.20;99.90;;;;;;5044768;28;20192;-76
2024/03/24 06:25:28;;;;;;;1.95;1.40;;;3.20;99.90;;;;;;5039564;28;20192;-76
2024/03/24 06:27:54;;;;;;;1.10;1.00;;;3.20;99.90;;;;;;5052641;27;20626;-76
2024/03/24 06:30:21;;;;;;;1.40;1.10;;;3.20;99.90;;;;;;5069726;27;20286;-76
2024/03/24 06:32:46;;;;;;;0.73;0.73;;;3.30;99.90;;;;;;5046772;28;20284;-76
2024/03/24 06:35:13;;;;;;;0.63;0.63;;;3.40;99.90;;;;;;5054996;27;20305;-75
2024/03/24 06:37:39;;;;;;;1.10;1.00;;;3.40;99.90;;;;;;5045337;28;20202;-76
2024/03/24 06:40:10;;;;;;;1.23;0.77;;;3.50;99.90;;;;;;5047375;27;20206;-75
2024/03/24 06:42:43;;;;;;;0.70;0.70;;;3.60;99.90;;;;;;5041835;28;20581;-76
2024/03/24 06:45:10;;;;;;;1.95;1.20;;;3.60;99.90;;;;;;5044660;28;20275;-76
2024/03/24 06:47:36;;;;;;;1.40;0.80;;;3.70;99.90;;;;;;5068580;27;20303;-76
2024/03/24 06:50:04;;;;;;;1.10;1.00;;;3.80;99.90;;;;;;5073217;27;20251;-72
2024/03/24 06:52:30;;;;;;;0.90;0.90;;;3.80;99.90;;;;;;5061626;27;20569;-72
2024/03/24 06:54:57;;;;;;;1.80;0.80;;;4.00;99.90;;;;;;5054642;28;20230;-73
2024/03/24 06:57:24;;;;;;;1.17;0.85;;;4.00;99.90;;;;;;5051220;28;20733;-72
2024/03/24 06:59:51;;;;;;;0.75;0.75;;;4.10;99.90;;;;;;5053356;28;20208;-72
2024/03/24 07:02:17;;;;;;;1.92;1.33;;;4.30;99.90;;;;;;5061219;27;20226;-72
2024/03/24 07:04:44;;;;;;;1.07;1.00;;;4.30;99.90;;;;;;5087084;27;20196;-72
2024/03/24 07:07:10;;;;;;;1.20;1.10;;;4.30;99.90;;;;;;5056041;27;20998;-72
2024/03/24 07:09:36;;;;;;;1.23;1.20;;;4.40;99.90;;;;;;5040962;28;20210;-72
2024/03/24 07:12:04;;;;;;;0.93;0.90;;;4.50;99.90;;;;;;5046508;28;20622;-72
2024/03/24 07:14:33;;;;;;;1.63;1.17;;;4.50;99.90;;;;;;5053865;27;20390;-72
2024/03/24 07:16:58;;;;;;;1.70;1.60;;;4.60;99.90;;;;;;5057117;27;20193;-72
2024/03/24 07:19:25;;;;;;;3.60;2.93;;;4.70;99.90;;;;;;5056553;27;20713;-72
2024/03/24 07:21:51;;;;;;;1.65;1.45;;;4.60;99.90;;;;;;5049372;28;20198;-73
2024/03/24 07:24:18;;;;;;;3.20;1.80;;;4.60;99.90;;;;;;5045417;27;20595;-73
2024/03/24 07:26:44;;;;;;;1.67;1.58;;;4.60;99.90;;;;;;5056673;27;20587;-72
2024/03/24 07:29:10;;;;;;;4.30;1.30;;;4.60;99.90;;;;;;5066680;27;20204;-71
2024/03/24 07:31:37;;;;;;;2.58;1.98;;;4.60;99.70;;;;;;5062883;27;20217;-75
2024/03/24 07:34:04;;;;;;;3.50;1.50;;;4.60;99.90;;;;;;5047969;27;20217;-74
2024/03/24 07:36:30;;;;;;;5.65;1.55;;;4.70;98.90;;;;;;5063394;27;20234;-75
2024/03/24 07:38:57;;;;;;;1.57;1.47;;;4.80;99.10;;;;;;5038978;27;20200;-73
2024/03/24 07:41:23;;;;;;;2.30;1.55;;;4.90;98.70;;;;;;5044251;27;20632;-73
2024/03/24 07:43:49;;;;;;;2.00;1.33;;;5.00;97.40;;;;;;5062589;27;20199;-71
2024/03/24 07:46:15;;;;;;;4.03;1.40;;;5.00;97.00;;;;;;5041605;27;21189;-71
2024/03/24 07:48:43;;;;;;;1.83;1.60;;;5.00;96.70;;;;;;5048391;28;20199;-71
2024/03/24 07:51:09;;;;;;;2.22;1.33;;;5.10;97.60;;;;;;5051503;28;20675;-71
2024/03/24 07:53:36;;;;;;;2.20;1.17;;;5.20;96.40;;;;;;5046669;28;20206;-73
2024/03/24 07:56:02;;;;;;;2.72;1.42;;;5.30;96.80;;;;;;5047574;28;20218;-71
2024/03/24 07:58:29;;;;;;;1.50;1.17;;;5.40;96.50;;;;;;5049576;28;20236;-71
2024/03/24 08:00:54;;;;;;;1.35;1.25;;;5.50;96.20;;;;;;5051607;27;20204;-72
2024/03/24 08:03:21;;;;;;;2.30;1.17;;;5.50;96.80;;;;;;5045376;27;20560;-74
2024/03/24 08:05:51;;;;;;;1.20;1.10;;;5.30;96.80;;;;;;5042436;28;20207;-73
2024/03/24 08:08:18;;;;;;;1.48;0.95;;;5.50;97.40;;;;;;5039801;27;20206;-74
2024/03/24 08:10:44;;;;;;;0.93;0.90;;;5.30;97.10;;;;;;5049873;28;20196;-75
2024/03/24 08:13:11;;;;;;;1.52;1.42;;;5.40;97.60;;;;;;5044968;28;20551;-72
2024/03/24 08:15:37;;;;;;;7.50;1.63;;;5.50;98.00;;;;;;5033602;28;20299;-72
2024/03/24 08:18:04;;;;;;;7.43;1.43;;;5.40;97.50;;;;;;5038755;28;20211;-71
2024/03/24 08:20:30;;;;;;;1.20;1.10;;;5.60;97.60;;;;;;5044140;28;20203;-71
2024/03/24 08:22:58;;;;;;;3.90;1.40;;;5.70;97.50;;;;;;5046010;28;20204;-71
2024/03/24 08:25:24;;;;;;;1.67;1.23;;;5.70;97.20;;;;;;5039852;28;20203;-71
2024/03/24 08:27:51;;;;;;;1.10;1.00;;;5.80;96.90;;;;;;5042100;27;20275;-71
2024/03/24 08:30:17;;;;;;;4.93;1.48;;;5.80;96.70;;;;;;5050477;27;20251;-71
2024/03/24 08:32:44;;;;;;;2.63;2.10;;;6.00;96.50;;;;;;5044357;28;20618;-71
2024/03/24 08:35:10;;;;;;;1.13;1.10;;;6.20;96.90;;;;;;5042950;28;20681;-71
2024/03/24 08:37:36;;;;;;;1.03;0.83;;;6.40;95.30;;;;;;5042369;28;20196;-71
2024/03/24 08:40:05;;;;;;;2.35;1.30;;;6.40;94.90;;;;;;5046333;28;20634;-71
2024/03/24 08:42:32;;;;;;;3.10;2.00;;;6.60;95.00;;;;;;5057233;27;20207;-71
2024/03/24 08:44:57;;;;;;;1.67;1.38;;;6.70;94.00;;;;;;5057092;28;20192;-71
2024/03/24 08:47:25;;;;;;;1.33;1.20;;;6.70;93.90;;;;;;5056258;28;20660;-72
2024/03/24 08:49:51;;;;;;;2.50;1.52;;;6.70;94.10;;;;;;5059488;27;20211;-71
2024/03/24 08:52:18;;;;;;;1.33;1.10;;;6.70;94.30;;;;;;5053242;28;20203;-71
2024/03/24 08:54:44;;;;;;;1.35;1.00;;;6.70;93.50;;;;;;5060380;27;20187;-71
2024/03/24 08:57:12;;;;;;;2.03;1.30;;;6.70;93.40;;;;;;5057089;28;20838;-71
2024/03/24 08:59:37;;;;;;;1.83;1.20;;;6.50;92.90;;;;;;5058073;28;20201;-71
2024/03/24 09:02:04;;;;;;;1.67;1.50;;;6.40;92.60;;;;;;5058515;27;20204;-71
2024/03/24 09:04:30;;;;;;;2.92;1.80;;;6.40;92.30;;;;;;5060669;28;20572;-71
2024/03/24 09:06:57;;;;;;;2.10;1.40;;;6.40;92.40;;;;;;5060407;27;20207;-71
2024/03/24 09:09:23;;;;;;;2.35;2.05;;;6.40;92.40;;;;;;5044516;28;20214;-71
2024/03/24 09:11:50;;;;;;;3.40;2.20;;;6.40;92.80;;;;;;5048235;28;20197;-71
2024/03/24 09:14:17;;;;;;;1.65;1.33;;;6.40;92.90;;;;;;5045269;27;20642;-72
2024/03/24 09:16:44;;;;;;;3.55;2.50;;;6.30;92.10;;;;;;5035140;28;20319;-72
2024/03/24 09:19:09;;;;;;;8.43;3.15;;;6.20;92.50;;;;;;5034410;28;20232;-72
2024/03/24 09:21:36;;;;;;;2.93;2.03;;;6.30;93.20;;;;;;5034432;28;20642;-72
2024/03/24 09:24:02;;;;;;;1.40;1.30;;;6.30;93.60;;;;;;5033010;28;20189;-70
2024/03/24 09:26:29;;;;;;;3.85;2.00;;;6.20;92.00;;;;;;5031958;28;20232;-70
2024/03/24 09:28:55;;;;;;;2.40;1.25;;;6.10;91.80;;;;;;5035163;28;20200;-70
2024/03/24 09:31:23;;;;;;;2.10;1.70;;;6.20;92.80;;;;;;5034520;28;20288;-71
2024/03/24 09:33:49;;;;;;;2.08;1.60;;;6.40;92.60;;;;;;5034289;28;20463;-71
2024/03/24 09:36:17;;;;;;;3.13;1.40;;;6.50;92.50;;;;;;5033041;28;20225;-71
2024/03/24 09:38:42;;;;;;;2.17;1.60;;;6.50;92.70;;;;;;5032324;28;20212;-71
2024/03/24 09:41:09;;;;;;;4.73;2.03;;;6.40;92.30;;;;;;5037064;28;20202;-71
2024/03/24 09:43:35;;;;;;;3.40;2.90;;;6.30;92.60;;;;;;5056687;27;21152;-71
2024/03/24 09:46:02;;;;;;;2.53;2.13;;;6.30;93.20;;;;;;5045712;28;20204;-71
2024/03/24 09:48:32;;;;;;;2.65;1.90;;;6.40;92.70;;;;;;5045711;28;20291;-71
2024/03/24 09:51:02;;;;;;;2.08;1.25;;;6.40;92.30;;;;;;5044251;28;20227;-71
2024/03/24 09:53:30;;;;;;;4.15;2.78;;;6.30;92.30;;;;;;5034642;28;20288;-71
2024/03/24 09:55:58;;;;;;;4.32;1.55;;;6.30;92.50;;;;;;5032577;28;20581;-71
2024/03/24 09:58:25;;;;;;;2.35;2.13;;;6.30;92.90;;;;;;5032031;28;20200;-71
2024/03/24 10:00:52;;;;;;;2.08;1.83;;;6.40;92.70;;;;;;5034653;28;20626;-71
2024/03/24 10:03:19;;;;;;;2.03;1.70;;;6.40;92.80;;;;;;5032823;28;20201;-71
2024/03/24 10:05:48;;;;;;;2.10;1.88;;;6.30;92.90;;;;;;5031584;28;20192;-71
2024/03/24 10:08:14;;;;;;;2.92;1.80;;;6.40;92.70;;;;;;5033747;28;20287;-71
2024/03/24 10:10:41;;;;;;;1.53;1.43;;;6.30;92.20;;;;;;5036068;28;20287;-71
2024/03/24 10:13:08;;;;;;;2.50;1.80;;;6.30;92.00;;;;;;5036442;28;20638;-71
2024/03/24 10:15:34;;;;;;;5.75;1.50;;;6.20;92.40;;;;;;5047399;28;20306;-71
2024/03/24 10:18:06;;;;;;;3.25;2.20;;;6.30;92.20;;;;;;5049340;28;20208;-71
2024/03/24 10:20:33;;;;;;;2.17;1.80;;;6.10;91.90;;;;;;5048596;27;20204;-71
2024/03/24 10:23:01;;;;;;;2.90;2.30;;;6.30;92.60;;;;;;5053551;28;20200;-71
2024/03/24 10:25:29;;;;;;;2.60;1.73;;;6.20;92.20;;;;;;5045958;28;20203;-71
2024/03/24 10:27:56;;;;;;;2.20;1.50;;;6.20;92.50;;;;;;5048156;28;20204;-71
2024/03/24 10:30:22;;;;;;;1.73;1.23;;;6.30;92.70;;;;;;5046762;28;20661;-71
2024/03/24 10:32:49;;;;;;;1.70;1.60;;;6.30;92.80;;;;;;5054894;27;20207;-71
2024/03/24 10:35:16;;;;;;;1.75;1.45;;;6.30;92.90;;;;;;5041900;28;21366;-71
2024/03/24 10:37:43;;;;;;;2.65;1.98;;;6.60;93.50;;;;;;5051299;28;20204;-71
2024/03/24 10:40:13;;;;;;;2.25;1.60;;;6.90;92.80;;;;;;5040086;28;20211;-71
2024/03/24 10:42:46;;;;;;;3.30;1.77;;;7.00;92.20;;;;;;5044280;28;20188;-71
2024/03/24 10:45:14;;;;;;;2.38;2.17;;;7.10;92.00;;;;;;5045889;28;20204;-71
2024/03/24 10:47:41;;;;;;;3.42;1.65;;;7.20;92.20;;;;;;5039254;28;20206;-71
2024/03/24 10:50:12;;;;;;;5.28;1.55;;;7.00;91.70;;;;;;5045861;28;20193;-71
2024/03/24 10:52:42;;;;;;;2.10;1.70;;;7.00;91.70;;;;;;5041694;28;20201;-71
2024/03/24 10:55:10;;;;;;;1.98;1.67;;;7.10;91.90;;;;;;5035834;27;20200;-70
2024/03/24 10:57:40;;;;;;;1.35;1.13;;;7.10;91.90;;;;;;5043380;28;20218;-71
2024/03/24 11:00:07;;;;;;;3.92;1.98;;;7.40;91.60;;;;;;5036749;28;20205;-71
2024/03/24 11:02:36;;;;;;;3.13;1.90;;;7.60;91.50;;;;;;5071088;27;20599;-71
2024/03/24 11:05:03;;;;;;;4.47;2.63;;;7.70;91.00;;;;;;5041065;28;20188;-71
2024/03/24 11:07:32;;;;;;;2.58;1.77;;;7.90;91.30;;;;;;5069214;27;20916;-75
2024/03/24 11:09:58;;;;;;;5.30;2.40;;;8.00;90.10;;;;;;5043073;28;20187;-74
2024/03/24 11:12:27;;;;;;;2.93;2.37;;;8.30;91.60;;;;;;5043145;28;20709;-74
2024/03/24 11:14:53;;;;;;;2.27;2.07;;;8.20;90.40;;;;;;5036570;28;20629;-73
2024/03/24 11:17:21;;;;;;;2.60;1.37;;;8.20;90.00;;;;;;5050084;28;20670;-73
2024/03/24 11:19:48;;;;;;;1.73;1.63;;;7.90;87.50;;;;;;5050292;27;20662;-73
2024/03/24 11:22:16;;;;;;;1.90;1.73;;;8.00;89.20;;;;;;5049120;28;20614;-73
2024/03/24 11:24:41;;;;;;;1.70;1.30;;;8.10;90.20;;;;;;5040128;28;20629;-73
2024/03/24 11:27:11;;;;;;;2.00;1.30;;;7.80;90.00;;;;;;5045544;27;21882;-74
2024/03/24 11:29:55;;;;;;;2.20;1.40;;;7.50;90.70;;;;;;5047547;28;20853;-73
2024/03/24 11:32:23;;;;;;;1.47;1.30;;;7.30;91.30;;;;;;5039059;28;21231;-73
2024/03/24 11:34:51;;;;;;;2.88;1.63;;;7.00;91.10;;;;;;5048297;27;20716;-73
2024/03/24 11:37:18;;;;;;;3.50;1.83;;;6.80;92.70;;;;;;5040996;28;20240;-73
2024/03/24 11:39:46;;;;;;;4.20;1.80;;;6.80;92.90;;;;;;5039227;28;20287;-74
2024/03/24 11:42:13;;;;;;;2.05;1.85;;;6.80;92.80;;;;;;5041498;28;20193;-74
2024/03/24 11:44:41;;;;;;;2.40;1.30;;;7.00;93.60;;;;;;5042376;27;20204;-73
2024/03/24 11:47:10;;;;;;;1.80;1.58;;;7.10;92.40;;;;;;5045909;28;20740;-77
2024/03/24 11:49:46;;;;;;;3.00;1.52;;;7.10;91.40;;;;;;5036361;28;20574;-79
2024/03/24 11:52:16;;;;;;;4.50;1.67;;;7.20;92.00;;;;;;5038471;28;20204;-76
2024/03/24 11:54:43;;;;;;;4.18;1.90;;;7.20;91.90;;;;;;5038608;28;20205;-75
2024/03/24 11:57:10;;;;;;;4.10;1.50;;;7.40;92.00;;;;;;5039463;28;20219;-79
2024/03/24 11:59:35;;;;;;;2.03;1.52;;;7.30;91.10;;;;;;5045711;28;20207;-76
2024/03/24 12:02:03;;;;;;;1.80;1.43;;;7.40;91.40;;;;;;5041843;28;20283;-79
2024/03/24 12:04:31;;;;;;;1.73;1.60;;;7.60;91.00;;;;;;5038802;28;20741;-80
2024/03/24 12:06:59;;;;;;;4.72;1.98;;;7.40;90.30;;;;;;5050719;28;20974;-79
2024/03/24 12:09:27;;;;;;;2.15;1.50;;;7.10;90.40;;;;;;5045172;28;20212;-78
2024/03/24 12:11:55;;;;;;;4.53;2.83;;;7.10;91.10;;;;;;5047910;27;20204;-81
2024/03/24 12:14:22;;;;;;;2.97;1.90;;;7.20;91.30;;;;;;5046756;28;20635;-81
2024/03/24 12:16:48;;;;;;;2.22;2.03;;;7.10;90.90;;;;;;5038043;28;20223;-80
2024/03/24 12:19:14;;;;;;;2.35;1.80;;;7.00;91.30;;;;;;5048134;28;20205;-81
2024/03/24 12:21:42;;;;;;;2.43;1.90;;;7.00;91.40;;;;;;5046823;28;20207;-81
2024/03/24 12:24:08;;;;;;;1.92;1.58;;;7.10;91.80;;;;;;5038201;28;20458;-79
2024/03/24 12:26:35;;;;;;;5.70;2.05;;;7.10;91.40;;;;;;5038295;28;20316;-79
2024/03/24 12:29:01;;;;;;;3.42;1.60;;;7.10;92.20;;;;;;5038703;28;20207;-81
2024/03/24 12:31:28;;;;;;;1.70;1.60;;;7.00;92.00;;;;;;5033227;28;20591;-82
2024/03/24 12:33:54;;;;;;;3.55;1.83;;;6.90;92.80;;;;;;5036537;28;20235;-81
2024/03/24 12:36:21;;;;;;;1.60;1.50;;;6.80;93.10;;;;;;5035867;28;20828;-81
2024/03/24 12:38:49;;;;;;;2.00;1.60;;;6.70;93.50;;;;;;5034346;28;20825;-81
2024/03/24 12:41:21;;;;;;;1.40;1.30;;;6.80;93.20;;;;;;5036283;28;20193;-81
2024/03/24 12:43:50;;;;;;;7.13;2.40;;;6.80;92.30;;;;;;5034546;28;20201;-81
2024/03/24 12:46:25;;;;;;;1.73;1.40;;;6.80;92.40;;;;;;5034905;27;20707;-81
2024/03/24 12:48:51;;;;;;;7.72;2.08;;;6.80;91.80;;;;;;5033500;28;20199;-81
2024/03/24 12:51:18;;;;;;;2.83;1.83;;;6.90;92.30;;;;;;5038438;27;20207;-80
2024/03/24 12:53:51;;;;;;;2.35;1.80;;;7.00;91.60;;;;;;5038048;28;20952;-80
2024/03/24 12:56:20;;;;;;;2.42;2.22;;;7.00;92.00;;;;;;5035562;28;20224;-81